createdAt,value
2019-03-31T00:02:09.601Z,13.53
2019-03-31T00:04:39.355Z,16.93
2019-03-31T00:07:09.249Z,18.05
2019-03-31T00:09:39.763Z,24.05
2019-03-31T00:12:09.482Z,20.40
2019-03-31T00:14:39.303Z,21.45
2019-03-31T00:17:09.068Z,15.58
2019-03-31T00:19:38.949Z,15.53
2019-03-31T00:22:08.751Z,17.42
2019-03-31T00:24:38.527Z,16.93
2019-03-31T00:27:08.221Z,18.82
2019-03-31T00:29:38.571Z,20.72
2019-03-31T00:32:09.993Z,25.08
2019-03-31T00:34:39.859Z,16.20
2019-03-31T00:37:09.542Z,15.90
2019-03-31T00:39:39.251Z,21.68
2019-03-31T00:42:09.047Z,20.75
2019-03-31T00:44:38.819Z,23.67
2019-03-31T00:47:08.543Z,27.55
2019-03-31T00:49:38.339Z,20.02
2019-03-31T00:52:08.069Z,15.80
2019-03-31T00:54:37.833Z,18.10
2019-03-31T00:57:07.511Z,20.72
2019-03-31T00:59:37.283Z,23.92
2019-03-31T01:02:10.915Z,24.23
2019-03-31T01:04:40.688Z,29.95
2019-03-31T01:07:10.473Z,23.27
2019-03-31T01:09:40.269Z,23.32
2019-03-31T01:12:10.417Z,22.00
2019-03-31T01:14:40.173Z,23.73
2019-03-31T01:17:10.942Z,24.95
2019-03-31T01:19:40.775Z,19.35
2019-03-31T01:22:10.532Z,23.90
2019-03-31T01:24:40.325Z,26.20
2019-03-31T01:27:11.009Z,22.20
2019-03-31T01:29:41.117Z,21.60
2019-03-31T01:32:11.078Z,21.07
2019-03-31T01:34:40.884Z,25.23
2019-03-31T01:37:11.580Z,21.33
2019-03-31T01:39:41.257Z,22.67
2019-03-31T01:42:11.154Z,16.62
2019-03-31T01:44:40.938Z,15.63
2019-03-31T01:47:11.100Z,17.02
2019-03-31T01:49:40.786Z,19.60
2019-03-31T01:52:10.458Z,19.98
2019-03-31T01:54:40.174Z,23.62
2019-03-31T01:57:09.984Z,22.35
2019-03-31T01:59:39.669Z,20.55
2019-03-31T02:02:13.126Z,21.25
2019-03-31T02:04:42.954Z,18.92
2019-03-31T02:07:12.682Z,19.70
2019-03-31T02:09:42.403Z,21.02
2019-03-31T02:12:12.158Z,24.70
2019-03-31T02:14:41.814Z,20.55
2019-03-31T02:17:11.649Z,20.30
2019-03-31T02:19:41.390Z,27.40
2019-03-31T02:22:11.078Z,22.80
2019-03-31T02:24:40.868Z,23.32
2019-03-31T02:27:10.545Z,21.05
2019-03-31T02:29:40.224Z,22.77
2019-03-31T02:32:23.286Z,18.75
2019-03-31T02:34:41.444Z,24.37
2019-03-31T02:37:11.223Z,20.80
2019-03-31T02:39:40.909Z,18.10
2019-03-31T02:42:10.609Z,16.35
2019-03-31T02:44:40.429Z,18.62
2019-03-31T02:47:10.211Z,19.82
2019-03-31T02:49:39.990Z,20.65
2019-03-31T02:52:09.678Z,23.75
2019-03-31T02:54:39.484Z,23.60
2019-03-31T02:57:09.375Z,22.80
2019-03-31T02:59:39.039Z,20.75
2019-03-31T03:02:11.036Z,17.07
2019-03-31T03:04:41.212Z,18.10
2019-03-31T03:07:12.869Z,17.57
2019-03-31T03:09:44.659Z,15.80
2019-03-31T03:12:16.194Z,18.82
2019-03-31T03:14:47.520Z,23.62
2019-03-31T03:17:17.275Z,16.30
2019-03-31T03:19:46.983Z,18.15
2019-03-31T03:22:16.737Z,18.15
2019-03-31T03:24:46.430Z,18.77
2019-03-31T03:27:16.236Z,15.30
2019-03-31T03:29:45.929Z,13.53
2019-03-31T03:32:15.641Z,15.50
2019-03-31T03:34:45.349Z,13.80
2019-03-31T03:37:15.042Z,16.10
2019-03-31T03:39:44.702Z,15.78
2019-03-31T03:42:14.343Z,16.23
2019-03-31T03:44:44.119Z,14.93
2019-03-31T03:47:13.762Z,14.80
2019-03-31T03:49:43.406Z,15.78
2019-03-31T03:52:13.103Z,14.68
2019-03-31T03:54:42.817Z,18.25
2019-03-31T03:57:12.499Z,16.87
2019-03-31T03:59:42.162Z,17.30
2019-03-31T04:02:11.944Z,20.35
2019-03-31T04:04:41.652Z,14.47
2019-03-31T04:07:11.359Z,15.32
2019-03-31T04:09:41.093Z,18.10
2019-03-31T04:12:10.757Z,15.55
2019-03-31T04:14:40.544Z,19.75
2019-03-31T04:17:10.164Z,14.15
2019-03-31T04:19:39.896Z,18.77
2019-03-31T04:22:09.593Z,18.52
2019-03-31T04:24:39.495Z,20.70
2019-03-31T04:27:09.158Z,25.08
2019-03-31T04:29:38.891Z,23.40
2019-03-31T04:32:08.537Z,20.95
2019-03-31T04:34:38.282Z,22.30
2019-03-31T04:37:07.955Z,22.05
2019-03-31T04:39:37.626Z,22.80
2019-03-31T04:42:07.345Z,24.57
2019-03-31T04:44:37.028Z,19.17
2019-03-31T04:47:06.731Z,20.48
2019-03-31T04:49:36.421Z,19.00
2019-03-31T04:52:06.081Z,20.68
2019-03-31T04:54:35.889Z,23.10
2019-03-31T04:57:05.708Z,19.30
2019-03-31T04:59:35.353Z,22.50
2019-03-31T05:02:05.115Z,24.35
2019-03-31T05:04:34.809Z,23.45
2019-03-31T05:07:04.495Z,26.33
2019-03-31T05:09:34.340Z,27.02
2019-03-31T05:12:03.958Z,43.02
2019-03-31T05:14:34.794Z,25.48
2019-03-31T05:17:04.702Z,28.30
2019-03-31T05:19:34.356Z,25.72
2019-03-31T05:22:04.350Z,20.82
2019-03-31T05:24:34.153Z,31.35
2019-03-31T05:27:03.918Z,23.18
2019-03-31T05:29:33.672Z,20.05
2019-03-31T05:32:03.331Z,15.58
2019-03-31T05:34:32.973Z,20.37
2019-03-31T05:37:02.669Z,15.88
2019-03-31T05:39:32.389Z,16.85
2019-03-31T05:42:02.075Z,16.25
2019-03-31T05:44:31.748Z,15.48
2019-03-31T05:47:01.412Z,16.50
2019-03-31T05:49:31.182Z,22.07
2019-03-31T05:52:00.840Z,18.55
2019-03-31T05:54:30.830Z,17.73
2019-03-31T05:57:00.580Z,18.00
2019-03-31T05:59:30.268Z,15.58
2019-03-31T06:02:00.030Z,15.48
2019-03-31T06:04:33.434Z,20.15
2019-03-31T06:07:01.084Z,13.72
2019-03-31T06:09:30.786Z,17.02
2019-03-31T06:12:00.462Z,15.75
2019-03-31T06:14:30.138Z,17.40
2019-03-31T06:16:59.812Z,16.42
2019-03-31T06:19:29.604Z,18.80
2019-03-31T06:21:59.378Z,18.20
2019-03-31T06:24:29.073Z,17.62
2019-03-31T06:26:58.770Z,21.93
2019-03-31T06:29:28.493Z,15.00
2019-03-31T06:31:58.202Z,21.97
2019-03-31T06:34:27.858Z,19.30
2019-03-31T06:36:59.884Z,25.30
2019-03-31T06:39:29.550Z,18.45
2019-03-31T06:41:59.420Z,17.02
2019-03-31T06:44:29.131Z,15.98
2019-03-31T06:46:58.888Z,20.97
2019-03-31T06:49:28.552Z,16.57
2019-03-31T06:51:58.254Z,16.35
2019-03-31T06:54:27.967Z,18.65
2019-03-31T06:56:57.762Z,19.37
2019-03-31T06:59:27.881Z,19.60
2019-03-31T07:01:57.583Z,17.48
2019-03-31T07:04:27.340Z,18.45
2019-03-31T07:06:58.903Z,18.62
2019-03-31T07:09:29.087Z,19.67
2019-03-31T07:11:58.826Z,15.00
2019-03-31T07:14:28.661Z,16.43
2019-03-31T07:16:58.320Z,18.40
2019-03-31T07:19:27.992Z,17.77
2019-03-31T07:21:57.691Z,18.73
2019-03-31T07:24:27.461Z,18.70
2019-03-31T07:26:57.152Z,17.97
2019-03-31T07:29:26.954Z,18.17
2019-03-31T07:31:56.702Z,19.77
2019-03-31T07:34:26.384Z,25.73
2019-03-31T07:36:56.436Z,22.33
2019-03-31T07:39:26.393Z,21.10
2019-03-31T07:41:56.523Z,21.30
2019-03-31T07:44:26.949Z,26.87
2019-03-31T07:46:56.820Z,26.47
2019-03-31T07:49:26.824Z,26.20
2019-03-31T07:51:56.636Z,26.97
2019-03-31T07:54:26.318Z,25.80
2019-03-31T07:56:56.077Z,31.30
2019-03-31T07:59:25.774Z,32.20
2019-03-31T08:01:55.548Z,34.43
2019-03-31T08:04:25.376Z,33.40
2019-03-31T08:06:55.102Z,33.10
2019-03-31T08:09:24.850Z,35.03
2019-03-31T08:11:54.579Z,42.13
2019-03-31T08:14:24.542Z,40.33
2019-03-31T08:16:54.335Z,45.10
2019-03-31T08:19:24.080Z,48.50
2019-03-31T08:21:53.735Z,55.63
2019-03-31T08:24:23.613Z,51.73
2019-03-31T08:26:53.319Z,53.93
2019-03-31T08:29:23.077Z,51.83
2019-03-31T08:31:53.053Z,60.17
2019-03-31T08:34:22.787Z,61.23
2019-03-31T08:36:52.605Z,56.13
2019-03-31T08:39:22.441Z,59.37
2019-03-31T08:41:52.252Z,61.13
2019-03-31T08:44:21.957Z,60.67
2019-03-31T08:46:51.641Z,66.70
2019-03-31T08:49:21.285Z,85.57
2019-03-31T08:51:51.135Z,136.50
2019-03-31T08:54:20.982Z,99.27
2019-03-31T08:56:50.682Z,101.60
2019-03-31T08:59:20.427Z,73.17
2019-03-31T09:01:50.624Z,79.30
2019-03-31T09:04:24.103Z,68.63
2019-03-31T09:06:58.932Z,69.93
2019-03-31T09:09:29.501Z,72.27
2019-03-31T09:11:59.718Z,61.73
2019-03-31T09:14:33.444Z,62.00
2019-03-31T09:17:27.695Z,68.33
2019-03-31T09:20:11.684Z,71.17
2019-03-31T09:22:43.054Z,73.37
2019-03-31T09:25:16.064Z,62.57
2019-03-31T09:27:45.952Z,67.60
2019-03-31T09:30:16.495Z,66.67
2019-03-31T09:32:46.608Z,62.63
2019-03-31T09:35:18.592Z,64.00
2019-03-31T09:37:48.534Z,66.40
2019-03-31T09:40:18.448Z,61.17
2019-03-31T09:42:48.308Z,66.60
2019-03-31T09:45:18.344Z,60.97
2019-03-31T09:47:48.317Z,71.20
2019-03-31T09:50:19.587Z,71.10
2019-03-31T09:52:49.404Z,67.07
2019-03-31T09:55:19.168Z,67.20
2019-03-31T09:57:48.951Z,74.20
2019-03-31T10:00:20.454Z,67.70
2019-03-31T10:02:50.315Z,74.23
2019-03-31T10:05:20.610Z,66.07
2019-03-31T10:07:50.510Z,75.73
2019-03-31T10:10:33.259Z,65.10
2019-03-31T10:13:03.000Z,76.10
2019-03-31T10:15:34.482Z,69.63
2019-03-31T10:18:09.538Z,68.83
2019-03-31T10:20:39.621Z,73.13
2019-03-31T10:23:12.202Z,79.37
2019-03-31T10:25:42.206Z,79.37
2019-03-31T10:28:12.181Z,86.27
2019-03-31T10:30:42.207Z,88.93
2019-03-31T10:33:12.323Z,80.47
2019-03-31T10:35:42.549Z,88.80
2019-03-31T10:38:12.401Z,80.37
2019-03-31T10:40:43.302Z,78.80
2019-03-31T10:43:13.394Z,84.47
2019-03-31T10:45:43.590Z,84.20
2019-03-31T10:48:20.457Z,90.43
2019-03-31T10:50:45.316Z,86.10
2019-03-31T10:53:15.117Z,82.40
2019-03-31T10:55:44.810Z,87.03
2019-03-31T10:58:14.588Z,83.13
2019-03-31T11:00:44.788Z,80.40
2019-03-31T11:03:14.812Z,77.53
2019-03-31T11:05:44.557Z,83.67
2019-03-31T11:08:14.303Z,82.63
2019-03-31T11:10:44.224Z,83.10
2019-03-31T11:13:14.058Z,77.00
2019-03-31T11:15:43.877Z,78.53
2019-03-31T11:18:13.586Z,79.87
2019-03-31T11:20:43.385Z,82.53
2019-03-31T11:23:32.368Z,78.70
2019-03-31T11:26:02.126Z,78.50
2019-03-31T11:28:31.905Z,78.30
2019-03-31T11:31:01.781Z,75.47
2019-03-31T11:33:31.602Z,89.73
2019-03-31T11:36:01.465Z,79.60
2019-03-31T11:38:31.277Z,74.70
2019-03-31T11:41:01.105Z,80.00
2019-03-31T11:43:31.926Z,80.13
2019-03-31T11:46:01.830Z,71.37
2019-03-31T11:48:31.619Z,77.33
2019-03-31T11:51:01.535Z,75.97
2019-03-31T11:53:31.593Z,74.30
2019-03-31T11:56:01.300Z,68.93
2019-03-31T11:58:32.373Z,68.17
2019-03-31T12:01:02.434Z,66.50
2019-03-31T12:03:32.448Z,66.80
2019-03-31T12:06:02.269Z,64.03
2019-03-31T12:08:32.182Z,60.20
2019-03-31T12:11:01.987Z,62.40
2019-03-31T12:13:31.979Z,65.67
2019-03-31T12:16:01.806Z,68.50
2019-03-31T12:18:31.600Z,62.33
2019-03-31T12:21:02.669Z,64.23
2019-03-31T12:23:32.433Z,59.07
2019-03-31T12:26:02.176Z,59.40
2019-03-31T12:28:32.002Z,57.17
2019-03-31T12:31:01.826Z,52.33
2019-03-31T12:33:33.237Z,53.05
2019-03-31T12:36:04.553Z,53.47
2019-03-31T12:38:34.385Z,49.80
2019-03-31T12:41:04.595Z,55.67
2019-03-31T12:43:34.458Z,49.20
2019-03-31T12:46:04.550Z,44.83
2019-03-31T12:48:34.525Z,49.63
2019-03-31T12:51:04.473Z,50.20
2019-03-31T12:53:53.104Z,44.40
2019-03-31T12:56:23.061Z,44.90
2019-03-31T12:58:53.208Z,46.80
2019-03-31T13:01:23.049Z,50.17
2019-03-31T13:03:53.802Z,39.07
2019-03-31T13:06:24.723Z,43.13
2019-03-31T13:08:54.612Z,43.10
2019-03-31T13:11:24.452Z,46.63
2019-03-31T13:13:54.199Z,46.83
2019-03-31T13:16:24.104Z,42.83
2019-03-31T13:18:53.938Z,39.10
2019-03-31T13:21:23.758Z,40.37
2019-03-31T13:23:53.606Z,41.10
2019-03-31T13:26:23.462Z,36.97
2019-03-31T13:28:53.338Z,38.13
2019-03-31T13:31:23.183Z,39.07
2019-03-31T13:33:54.217Z,37.97
2019-03-31T13:36:23.995Z,38.07
2019-03-31T13:38:53.709Z,37.97
2019-03-31T13:41:23.951Z,40.77
2019-03-31T13:43:55.782Z,34.90
2019-03-31T13:46:25.693Z,35.53
2019-03-31T13:48:55.641Z,37.80
2019-03-31T13:51:25.445Z,41.00
2019-03-31T13:53:55.352Z,37.03
2019-03-31T13:56:26.047Z,35.03
2019-03-31T13:58:56.283Z,34.97
2019-03-31T14:01:26.125Z,38.43
2019-03-31T14:03:56.133Z,36.80
2019-03-31T14:06:27.034Z,35.60
2019-03-31T14:08:56.917Z,36.47
2019-03-31T14:11:26.738Z,34.40
2019-03-31T14:13:56.581Z,36.63
2019-03-31T14:16:29.115Z,40.00
2019-03-31T14:18:58.047Z,37.70
2019-03-31T14:21:27.791Z,37.37
2019-03-31T14:23:57.439Z,32.70
2019-03-31T14:26:28.163Z,32.03
2019-03-31T14:28:58.437Z,34.63
2019-03-31T14:31:28.254Z,33.90
2019-03-31T14:33:58.341Z,34.43
2019-03-31T14:36:28.145Z,34.40
2019-03-31T14:38:57.992Z,33.37
2019-03-31T14:41:27.833Z,31.40
2019-03-31T14:43:57.600Z,36.33
2019-03-31T14:46:28.958Z,29.27
2019-03-31T14:48:58.770Z,31.17
2019-03-31T14:51:28.614Z,38.47
2019-03-31T14:53:58.452Z,30.80
2019-03-31T14:56:28.281Z,35.40
2019-03-31T14:58:58.261Z,34.80
2019-03-31T15:01:28.179Z,27.60
2019-03-31T15:03:57.986Z,25.33
2019-03-31T15:06:28.641Z,30.20
2019-03-31T15:08:58.373Z,30.27
2019-03-31T15:11:28.218Z,28.03
2019-03-31T15:13:58.171Z,30.20
2019-03-31T15:16:28.043Z,32.00
2019-03-31T15:19:00.820Z,27.87
2019-03-31T15:21:30.580Z,26.30
2019-03-31T15:24:00.453Z,28.60
2019-03-31T15:26:30.245Z,25.30
2019-03-31T15:29:00.633Z,27.80
2019-03-31T15:31:30.556Z,23.93
2019-03-31T15:34:01.285Z,28.83
2019-03-31T15:36:31.745Z,25.63
2019-03-31T15:39:08.816Z,44.50
2019-03-31T15:41:33.451Z,29.00
2019-03-31T15:44:03.326Z,25.47
2019-03-31T15:46:33.223Z,32.83
2019-03-31T15:49:03.096Z,23.50
2019-03-31T15:51:32.991Z,27.17
2019-03-31T15:54:02.847Z,24.00
2019-03-31T15:56:32.821Z,19.07
2019-03-31T15:59:02.701Z,20.47
2019-03-31T16:01:32.627Z,19.20
2019-03-31T16:04:02.683Z,24.43
2019-03-31T16:06:33.099Z,17.40
2019-03-31T16:09:03.223Z,18.03
2019-03-31T16:11:32.660Z,21.60
2019-03-31T16:14:03.519Z,20.70
2019-03-31T16:16:34.230Z,20.60
2019-03-31T16:19:04.139Z,22.20
2019-03-31T16:21:34.450Z,17.87
2019-03-31T16:24:04.186Z,16.70
2019-03-31T16:26:33.690Z,16.43
2019-03-31T16:29:03.159Z,16.50
2019-03-31T16:31:33.199Z,20.87
2019-03-31T16:34:02.518Z,16.23
2019-03-31T16:36:32.347Z,16.07
2019-03-31T16:39:02.402Z,16.20
2019-03-31T16:41:31.986Z,14.47
2019-03-31T16:44:01.436Z,17.67
2019-03-31T16:46:30.816Z,15.13
2019-03-31T16:49:00.103Z,14.67
2019-03-31T16:51:29.265Z,20.17
2019-03-31T16:53:58.696Z,17.63
2019-03-31T16:56:28.030Z,15.20
2019-03-31T16:58:57.521Z,16.80
2019-03-31T17:01:26.750Z,13.33
2019-03-31T17:03:55.907Z,16.10
2019-03-31T17:06:25.108Z,14.50
2019-03-31T17:08:54.361Z,14.97
2019-03-31T17:11:23.731Z,15.17
2019-03-31T17:13:53.466Z,12.67
2019-03-31T17:16:22.719Z,18.73
2019-03-31T17:18:51.992Z,15.53
2019-03-31T17:21:25.125Z,14.33
2019-03-31T17:23:56.712Z,19.43
2019-03-31T17:26:30.752Z,15.27
2019-03-31T17:29:04.412Z,14.23
2019-03-31T17:31:36.523Z,14.97
2019-03-31T17:34:06.469Z,22.23
2019-03-31T17:36:39.226Z,14.10
2019-03-31T17:39:09.678Z,20.13
2019-03-31T17:41:42.703Z,15.20
2019-03-31T17:44:14.585Z,22.05
2019-03-31T17:46:44.308Z,16.27
2019-03-31T17:49:13.668Z,16.70
2019-03-31T17:51:43.090Z,15.08
2019-03-31T17:54:12.386Z,14.85
2019-03-31T17:56:41.573Z,13.80
2019-03-31T17:59:10.740Z,19.35
2019-03-31T18:01:40.046Z,17.55
2019-03-31T18:04:09.292Z,15.60
2019-03-31T18:06:38.532Z,16.32
2019-03-31T18:09:09.108Z,14.87
2019-03-31T18:11:39.862Z,16.82
2019-03-31T18:14:09.599Z,20.00
2019-03-31T18:16:39.300Z,25.77
2019-03-31T18:19:11.457Z,16.45
2019-03-31T18:21:40.797Z,15.32
2019-03-31T18:24:12.852Z,13.80
2019-03-31T18:26:42.263Z,12.90
2019-03-31T18:29:11.544Z,13.62
2019-03-31T18:31:42.849Z,16.57
2019-03-31T18:34:11.861Z,15.40
2019-03-31T18:36:41.551Z,14.85
2019-03-31T18:39:14.353Z,26.10
2019-03-31T18:41:45.247Z,18.00
2019-03-31T18:44:14.626Z,13.22
2019-03-31T18:46:43.806Z,17.45
2019-03-31T18:49:13.133Z,12.98
2019-03-31T18:51:42.763Z,11.97
2019-03-31T18:54:21.337Z,15.55
2019-03-31T18:57:17.431Z,12.13
2019-03-31T19:00:11.894Z,11.35
2019-03-31T19:03:50.881Z,13.10
2019-03-31T19:06:29.853Z,13.75
2019-03-31T19:09:17.185Z,14.40
2019-03-31T19:12:04.607Z,12.37
2019-03-31T19:15:09.549Z,9.78
2019-03-31T19:17:59.184Z,13.58
2019-03-31T19:20:36.968Z,14.07
2019-03-31T19:23:12.456Z,11.45
2019-03-31T19:25:50.238Z,11.93
2019-03-31T19:28:35.793Z,14.30
2019-03-31T19:31:22.595Z,12.60
2019-03-31T19:34:13.735Z,12.70
2019-03-31T19:37:09.262Z,10.95
2019-03-31T19:39:56.547Z,12.88
2019-03-31T19:43:02.967Z,10.35
2019-03-31T19:45:55.006Z,11.73
2019-03-31T19:48:52.209Z,11.78
2019-03-31T19:51:49.425Z,19.35
2019-03-31T19:54:28.783Z,14.30
2019-03-31T19:57:21.377Z,13.80
2019-03-31T20:00:21.796Z,26.95
2019-03-31T20:03:06.737Z,18.52
2019-03-31T20:06:15.011Z,14.98
2019-03-31T20:09:07.428Z,16.77
2019-03-31T20:11:42.551Z,15.28
2019-03-31T20:14:20.299Z,16.07
2019-03-31T20:17:02.542Z,16.20
2019-03-31T20:19:41.858Z,14.73
2019-03-31T20:22:33.042Z,15.32
2019-03-31T20:25:27.360Z,15.15
2019-03-31T20:28:27.283Z,12.20
2019-03-31T20:31:24.528Z,16.90
2019-03-31T20:34:11.811Z,8.75
2019-03-31T20:37:07.420Z,8.53
2019-03-31T20:39:56.595Z,11.60
2019-03-31T20:42:25.588Z,8.85
2019-03-31T20:44:54.770Z,9.20
2019-03-31T20:47:24.046Z,12.55
2019-03-31T20:49:53.313Z,14.43
2019-03-31T20:52:22.468Z,7.03
2019-03-31T20:54:51.711Z,14.07
2019-03-31T20:57:20.942Z,8.65
2019-03-31T20:59:50.146Z,8.93
2019-03-31T21:02:19.472Z,8.88
2019-03-31T21:04:48.642Z,8.38
2019-03-31T21:07:17.801Z,12.30
2019-03-31T21:09:47.044Z,16.60
2019-03-31T21:12:16.176Z,8.43
2019-03-31T21:14:45.302Z,12.65
2019-03-31T21:17:14.837Z,8.95
2019-03-31T21:19:44.061Z,9.08
2019-03-31T21:22:13.184Z,12.23
2019-03-31T21:24:42.468Z,9.38
2019-03-31T21:27:11.607Z,9.25
2019-03-31T21:29:40.889Z,8.60
2019-03-31T21:32:10.013Z,10.58
2019-03-31T21:34:39.307Z,11.30
2019-03-31T21:37:08.544Z,9.00
2019-03-31T21:39:37.698Z,8.55
2019-03-31T21:42:06.920Z,9.48
2019-03-31T21:44:36.122Z,13.53
2019-03-31T21:47:05.305Z,12.63
2019-03-31T21:49:34.442Z,13.00
2019-03-31T21:52:03.681Z,9.00
2019-03-31T21:54:32.907Z,12.25
2019-03-31T21:57:02.455Z,8.60
2019-03-31T21:59:33.538Z,11.85
2019-03-31T22:02:02.645Z,10.32
2019-03-31T22:04:31.927Z,12.07
2019-03-31T22:07:01.122Z,12.15
2019-03-31T22:09:30.362Z,9.88
2019-03-31T22:11:59.757Z,17.17
2019-03-31T22:14:29.003Z,6.58
2019-03-31T22:16:58.137Z,13.10
2019-03-31T22:19:27.390Z,11.03
2019-03-31T22:21:56.511Z,13.48
2019-03-31T22:24:25.773Z,8.90
2019-03-31T22:26:55.129Z,7.50
2019-03-31T22:29:24.309Z,12.43
2019-03-31T22:31:53.535Z,9.05
2019-03-31T22:34:22.871Z,8.53
2019-03-31T22:36:52.195Z,13.75
2019-03-31T22:39:21.665Z,18.70
2019-03-31T22:41:51.123Z,10.50
2019-03-31T22:44:20.424Z,11.05
2019-03-31T22:46:54.547Z,8.70
2019-03-31T22:49:20.872Z,9.60
2019-03-31T22:51:50.113Z,8.85
2019-03-31T22:54:19.447Z,9.05
2019-03-31T22:56:48.723Z,14.00
2019-03-31T22:59:20.031Z,10.55
2019-03-31T23:01:49.289Z,8.70
2019-03-31T23:04:18.523Z,8.63
2019-03-31T23:06:47.761Z,9.23
2019-03-31T23:09:16.982Z,15.55
2019-03-31T23:11:46.229Z,9.58
2019-03-31T23:14:15.527Z,11.80
2019-03-31T23:16:44.863Z,9.90
2019-03-31T23:19:14.045Z,11.12
2019-03-31T23:21:43.433Z,6.75
2019-03-31T23:24:12.804Z,10.90
2019-03-31T23:26:42.104Z,9.55
2019-03-31T23:29:11.336Z,13.28
2019-03-31T23:31:40.550Z,11.38
2019-03-31T23:34:09.649Z,11.20
2019-03-31T23:36:38.960Z,9.88
2019-03-31T23:39:08.603Z,8.50
2019-03-31T23:41:37.759Z,8.28
2019-03-31T23:44:06.892Z,23.70
2019-03-31T23:46:36.213Z,8.58
2019-03-31T23:49:05.774Z,7.35
2019-03-31T23:51:35.178Z,10.30
2019-03-31T23:54:04.564Z,9.63
2019-03-31T23:56:33.965Z,9.48
2019-03-31T23:59:03.189Z,7.78
